sensor_id;sensor_type;location;lat;lon;timestamp;temperature;humidity
13697;DHT22;6920;50.080;8.226;2023-04-25T00:01:07;8.70;99.90
13697;DHT22;6920;50.080;8.226;2023-04-25T00:03:50;8.60;99.90
13697;DHT22;6920;50.080;8.226;2023-04-25T00:06:28;8.50;99.90
13697;DHT22;6920;50.080;8.226;2023-04-25T00:09:14;8.80;99.90
13697;DHT22;6920;50.080;8.226;2023-04-25T00:11:43;8.90;99.90
13697;DHT22;6920;50.080;8.226;2023-04-25T00:14:26;8.90;99.90
13697;DHT22;6920;50.080;8.226;2023-04-25T00:17:15;9.00;99.90
13697;DHT22;6920;50.080;8.226;2023-04-25T00:19:46;9.00;99.90
13697;DHT22;6920;50.080;8.226;2023-04-25T00:22:14;8.90;99.90
13697;DHT22;6920;50.080;8.226;2023-04-25T00:24:45;8.90;99.90
13697;DHT22;6920;50.080;8.226;2023-04-25T00:27:13;8.90;99.90
13697;DHT22;6920;50.080;8.226;2023-04-25T00:29:43;9.00;99.90
13697;DHT22;6920;50.080;8.226;2023-04-25T00:32:12;8.90;99.90
13697;DHT22;6920;50.080;8.226;2023-04-25T00:34:39;8.90;99.90
13697;DHT22;6920;50.080;8.226;2023-04-25T00:37:09;8.80;99.90
13697;DHT22;6920;50.080;8.226;2023-04-25T00:39:42;8.80;99.90
13697;DHT22;6920;50.080;8.226;2023-04-25T00:42:11;8.90;99.90
13697;DHT22;6920;50.080;8.226;2023-04-25T00:44:38;8.90;99.90
13697;DHT22;6920;50.080;8.226;2023-04-25T00:47:11;8.80;99.90
13697;DHT22;6920;50.080;8.226;2023-04-25T00:49:41;8.90;99.90
13697;DHT22;6920;50.080;8.226;2023-04-25T00:52:08;8.90;99.90
13697;DHT22;6920;50.080;8.226;2023-04-25T00:54:35;9.00;99.90
13697;DHT22;6920;50.080;8.226;2023-04-25T00:57:11;8.90;99.90
13697;DHT22;6920;50.080;8.226;2023-04-25T00:59:45;8.90;99.90
13697;DHT22;6920;50.080;8.226;2023-04-25T01:02:14;8.90;99.90
13697;DHT22;6920;50.080;8.226;2023-04-25T01:04:44;8.90;99.90
13697;DHT22;6920;50.080;8.226;2023-04-25T01:07:13;9.00;99.90
13697;DHT22;6920;50.080;8.226;2023-04-25T01:09:44;8.90;99.90
13697;DHT22;6920;50.080;8.226;2023-04-25T01:12:19;8.80;99.90
13697;DHT22;6920;50.080;8.226;2023-04-25T01:15:07;8.90;99.90
13697;DHT22;6920;50.080;8.226;2023-04-25T01:17:37;8.90;99.90
13697;DHT22;6920;50.080;8.226;2023-04-25T01:20:10;9.00;99.90
13697;DHT22;6920;50.080;8.226;2023-04-25T01:25:32;8.90;99.90
13697;DHT22;6920;50.080;8.226;2023-04-25T01:28:08;8.90;99.90
13697;DHT22;6920;50.080;8.226;2023-04-25T01:30:37;8.80;99.90
13697;DHT22;6920;50.080;8.226;2023-04-25T01:33:08;8.90;99.90
13697;DHT22;6920;50.080;8.226;2023-04-25T01:35:36;8.90;99.90
13697;DHT22;6920;50.080;8.226;2023-04-25T01:38:08;9.00;99.90
13697;DHT22;6920;50.080;8.226;2023-04-25T01:40:45;9.00;99.90
13697;DHT22;6920;50.080;8.226;2023-04-25T01:43:15;8.90;99.90
13697;DHT22;6920;50.080;8.226;2023-04-25T01:45:44;9.00;99.90
13697;DHT22;6920;50.080;8.226;2023-04-25T01:48:16;9.10;99.90
13697;DHT22;6920;50.080;8.226;2023-04-25T01:50:46;9.10;99.90
13697;DHT22;6920;50.080;8.226;2023-04-25T01:53:15;8.90;99.90
13697;DHT22;6920;50.080;8.226;2023-04-25T01:55:54;9.00;99.90
13697;DHT22;6920;50.080;8.226;2023-04-25T01:58:23;8.90;99.90
13697;DHT22;6920;50.080;8.226;2023-04-25T02:00:51;8.90;99.90
13697;DHT22;6920;50.080;8.226;2023-04-25T02:03:20;8.90;99.90
13697;DHT22;6920;50.080;8.226;2023-04-25T02:05:48;9.00;99.90
13697;DHT22;6920;50.080;8.226;2023-04-25T02:08:18;8.90;99.90
13697;DHT22;6920;50.080;8.226;2023-04-25T02:11:10;8.90;99.90
13697;DHT22;6920;50.080;8.226;2023-04-25T02:13:40;9.00;99.90
13697;DHT22;6920;50.080;8.226;2023-04-25T02:16:07;9.00;99.90
13697;DHT22;6920;50.080;8.226;2023-04-25T02:18:37;8.90;99.90
13697;DHT22;6920;50.080;8.226;2023-04-25T02:21:14;8.90;99.90
13697;DHT22;6920;50.080;8.226;2023-04-25T02:23:42;8.90;99.90
13697;DHT22;6920;50.080;8.226;2023-04-25T02:26:17;8.90;99.90
13697;DHT22;6920;50.080;8.226;2023-04-25T02:28:47;8.90;99.90
13697;DHT22;6920;50.080;8.226;2023-04-25T02:31:18;8.80;99.90
13697;DHT22;6920;50.080;8.226;2023-04-25T02:33:57;8.90;99.90
13697;DHT22;6920;50.080;8.226;2023-04-25T02:36:25;8.70;99.90
13697;DHT22;6920;50.080;8.226;2023-04-25T02:38:54;8.70;99.90
13697;DHT22;6920;50.080;8.226;2023-04-25T02:41:23;8.70;99.90
13697;DHT22;6920;50.080;8.226;2023-04-25T02:43:54;8.70;99.90
13697;DHT22;6920;50.080;8.226;2023-04-25T02:48:48;8.70;99.90
13697;DHT22;6920;50.080;8.226;2023-04-25T02:51:15;8.70;99.90
13697;DHT22;6920;50.080;8.226;2023-04-25T02:53:44;8.70;99.90
13697;DHT22;6920;50.080;8.226;2023-04-25T02:56:11;8.70;99.90
13697;DHT22;6920;50.080;8.226;2023-04-25T02:58:41;8.70;99.90
13697;DHT22;6920;50.080;8.226;2023-04-25T03:01:10;8.60;99.90
13697;DHT22;6920;50.080;8.226;2023-04-25T03:03:37;8.60;99.90
13697;DHT22;6920;50.080;8.226;2023-04-25T03:06:07;8.80;99.90
13697;DHT22;6920;50.080;8.226;2023-04-25T03:08:34;8.50;99.90
13697;DHT22;6920;50.080;8.226;2023-04-25T03:11:02;8.50;99.90
13697;DHT22;6920;50.080;8.226;2023-04-25T03:13:32;8.40;99.90
13697;DHT22;6920;50.080;8.226;2023-04-25T03:16:05;8.40;99.90
13697;DHT22;6920;50.080;8.226;2023-04-25T03:18:32;8.30;99.90
13697;DHT22;6920;50.080;8.226;2023-04-25T03:21:02;8.40;99.90
13697;DHT22;6920;50.080;8.226;2023-04-25T03:23:30;8.40;99.90
13697;DHT22;6920;50.080;8.226;2023-04-25T03:25:57;8.40;99.90
13697;DHT22;6920;50.080;8.226;2023-04-25T03:28:25;8.40;99.90
13697;DHT22;6920;50.080;8.226;2023-04-25T03:30:53;8.50;99.90
13697;DHT22;6920;50.080;8.226;2023-04-25T03:33:22;8.40;99.90
13697;DHT22;6920;50.080;8.226;2023-04-25T03:35:51;8.40;99.90
13697;DHT22;6920;50.080;8.226;2023-04-25T03:38:20;8.30;99.90
13697;DHT22;6920;50.080;8.226;2023-04-25T03:40:47;8.20;99.90
13697;DHT22;6920;50.080;8.226;2023-04-25T03:43:14;8.20;99.90
13697;DHT22;6920;50.080;8.226;2023-04-25T03:45:41;8.10;99.90
13697;DHT22;6920;50.080;8.226;2023-04-25T03:48:08;8.00;99.90
13697;DHT22;6920;50.080;8.226;2023-04-25T03:50:41;7.90;99.90
13697;DHT22;6920;50.080;8.226;2023-04-25T03:53:09;7.80;99.90
13697;DHT22;6920;50.080;8.226;2023-04-25T03:55:37;7.70;99.90
13697;DHT22;6920;50.080;8.226;2023-04-25T03:58:04;7.70;99.90
13697;DHT22;6920;50.080;8.226;2023-04-25T04:00:31;7.70;99.90
13697;DHT22;6920;50.080;8.226;2023-04-25T04:02:59;7.70;99.90
13697;DHT22;6920;50.080;8.226;2023-04-25T04:05:27;7.80;99.90
13697;DHT22;6920;50.080;8.226;2023-04-25T04:08:00;7.70;99.90
13697;DHT22;6920;50.080;8.226;2023-04-25T04:10:30;7.60;99.90
13697;DHT22;6920;50.080;8.226;2023-04-25T04:12:57;7.60;99.90
13697;DHT22;6920;50.080;8.226;2023-04-25T04:15:24;7.60;99.90
13697;DHT22;6920;50.080;8.226;2023-04-25T04:17:53;7.70;99.90
13697;DHT22;6920;50.080;8.226;2023-04-25T04:20:20;7.60;99.90
13697;DHT22;6920;50.080;8.226;2023-04-25T04:22:49;7.60;99.90
13697;DHT22;6920;50.080;8.226;2023-04-25T04:25:19;7.60;99.90
13697;DHT22;6920;50.080;8.226;2023-04-25T04:27:46;7.60;99.90
13697;DHT22;6920;50.080;8.226;2023-04-25T04:30:17;7.50;99.90
13697;DHT22;6920;50.080;8.226;2023-04-25T04:32:48;7.50;99.90
13697;DHT22;6920;50.080;8.226;2023-04-25T04:37:45;7.50;99.90
13697;DHT22;6920;50.080;8.226;2023-04-25T04:40:14;7.50;99.90
13697;DHT22;6920;50.080;8.226;2023-04-25T04:42:46;7.40;99.90
13697;DHT22;6920;50.080;8.226;2023-04-25T04:45:15;7.30;99.90
13697;DHT22;6920;50.080;8.226;2023-04-25T04:47:42;7.30;99.90
13697;DHT22;6920;50.080;8.226;2023-04-25T04:50:11;7.30;99.90
13697;DHT22;6920;50.080;8.226;2023-04-25T04:52:39;7.30;99.90
13697;DHT22;6920;50.080;8.226;2023-04-25T04:55:08;7.30;99.90
13697;DHT22;6920;50.080;8.226;2023-04-25T04:57:37;7.30;99.90
13697;DHT22;6920;50.080;8.226;2023-04-25T05:00:07;7.30;99.90
13697;DHT22;6920;50.080;8.226;2023-04-25T05:02:37;7.30;99.90
13697;DHT22;6920;50.080;8.226;2023-04-25T05:05:06;7.30;99.90
13697;DHT22;6920;50.080;8.226;2023-04-25T05:07:36;7.30;99.90
13697;DHT22;6920;50.080;8.226;2023-04-25T05:10:03;7.30;99.90
13697;DHT22;6920;50.080;8.226;2023-04-25T05:12:33;7.30;99.90
13697;DHT22;6920;50.080;8.226;2023-04-25T05:15:01;7.40;99.90
13697;DHT22;6920;50.080;8.226;2023-04-25T05:17:31;7.40;99.90
13697;DHT22;6920;50.080;8.226;2023-04-25T05:20:00;7.50;99.90
13697;DHT22;6920;50.080;8.226;2023-04-25T05:22:31;7.60;99.90
13697;DHT22;6920;50.080;8.226;2023-04-25T05:25:04;7.60;99.90
13697;DHT22;6920;50.080;8.226;2023-04-25T05:27:34;7.60;99.90
13697;DHT22;6920;50.080;8.226;2023-04-25T05:30:06;7.60;99.90
13697;DHT22;6920;50.080;8.226;2023-04-25T05:32:35;7.70;99.90
13697;DHT22;6920;50.080;8.226;2023-04-25T05:37:33;7.60;99.90
13697;DHT22;6920;50.080;8.226;2023-04-25T05:40:00;7.60;99.90
13697;DHT22;6920;50.080;8.226;2023-04-25T05:42:31;7.80;99.90
13697;DHT22;6920;50.080;8.226;2023-04-25T05:44:59;7.80;99.90
13697;DHT22;6920;50.080;8.226;2023-04-25T05:47:27;7.80;99.90
13697;DHT22;6920;50.080;8.226;2023-04-25T05:49:57;7.70;99.90
13697;DHT22;6920;50.080;8.226;2023-04-25T05:52:26;7.80;99.90
13697;DHT22;6920;50.080;8.226;2023-04-25T05:54:54;7.80;99.90
13697;DHT22;6920;50.080;8.226;2023-04-25T05:57:24;7.80;99.90
13697;DHT22;6920;50.080;8.226;2023-04-25T05:59:53;7.90;99.90
13697;DHT22;6920;50.080;8.226;2023-04-25T06:02:21;7.90;99.90
13697;DHT22;6920;50.080;8.226;2023-04-25T06:04:50;7.90;99.90
13697;DHT22;6920;50.080;8.226;2023-04-25T06:07:19;8.00;99.90
13697;DHT22;6920;50.080;8.226;2023-04-25T06:09:48;8.10;99.90
13697;DHT22;6920;50.080;8.226;2023-04-25T06:12:18;8.00;99.90
13697;DHT22;6920;50.080;8.226;2023-04-25T06:14:46;8.10;99.90
13697;DHT22;6920;50.080;8.226;2023-04-25T06:17:13;8.00;99.90
13697;DHT22;6920;50.080;8.226;2023-04-25T06:19:42;8.10;99.90
13697;DHT22;6920;50.080;8.226;2023-04-25T06:22:12;8.10;99.90
13697;DHT22;6920;50.080;8.226;2023-04-25T06:31:00;8.30;99.90
13697;DHT22;6920;50.080;8.226;2023-04-25T06:33:27;8.40;99.90
13697;DHT22;6920;50.080;8.226;2023-04-25T06:35:54;8.30;99.90
13697;DHT22;6920;50.080;8.226;2023-04-25T06:38:21;8.30;99.90
13697;DHT22;6920;50.080;8.226;2023-04-25T06:43:15;8.40;99.90
13697;DHT22;6920;50.080;8.226;2023-04-25T06:45:43;8.60;99.90
13697;DHT22;6920;50.080;8.226;2023-04-25T06:48:13;8.80;99.90
13697;DHT22;6920;50.080;8.226;2023-04-25T06:50:42;9.10;99.90
13697;DHT22;6920;50.080;8.226;2023-04-25T06:53:09;9.20;99.90
13697;DHT22;6920;50.080;8.226;2023-04-25T06:55:37;9.10;99.90
13697;DHT22;6920;50.080;8.226;2023-04-25T06:58:04;9.40;99.90
13697;DHT22;6920;50.080;8.226;2023-04-25T07:00:35;9.40;99.90
13697;DHT22;6920;50.080;8.226;2023-04-25T07:03:03;9.50;99.90
13697;DHT22;6920;50.080;8.226;2023-04-25T07:05:32;9.50;99.90
13697;DHT22;6920;50.080;8.226;2023-04-25T07:07:59;9.70;99.90
13697;DHT22;6920;50.080;8.226;2023-04-25T07:10:27;9.50;99.90
13697;DHT22;6920;50.080;8.226;2023-04-25T07:12:58;9.60;99.90
13697;DHT22;6920;50.080;8.226;2023-04-25T07:15:26;9.70;99.90
13697;DHT22;6920;50.080;8.226;2023-04-25T07:17:53;9.80;99.90
13697;DHT22;6920;50.080;8.226;2023-04-25T07:20:20;9.50;99.90
13697;DHT22;6920;50.080;8.226;2023-04-25T07:22:56;9.50;99.90
13697;DHT22;6920;50.080;8.226;2023-04-25T07:25:23;9.60;99.90
13697;DHT22;6920;50.080;8.226;2023-04-25T07:27:51;9.40;99.90
13697;DHT22;6920;50.080;8.226;2023-04-25T07:30:19;9.30;99.90
13697;DHT22;6920;50.080;8.226;2023-04-25T07:32:46;9.30;99.90
13697;DHT22;6920;50.080;8.226;2023-04-25T07:35:13;9.20;99.90
13697;DHT22;6920;50.080;8.226;2023-04-25T07:37:43;9.20;99.90
13697;DHT22;6920;50.080;8.226;2023-04-25T07:40:14;9.10;99.90
13697;DHT22;6920;50.080;8.226;2023-04-25T07:42:42;9.20;99.90
13697;DHT22;6920;50.080;8.226;2023-04-25T07:45:10;9.20;99.90
13697;DHT22;6920;50.080;8.226;2023-04-25T07:47:37;9.30;99.90
13697;DHT22;6920;50.080;8.226;2023-04-25T07:50:06;9.40;99.90
13697;DHT22;6920;50.080;8.226;2023-04-25T07:52:33;9.40;99.90
13697;DHT22;6920;50.080;8.226;2023-04-25T07:55:00;9.30;99.90
13697;DHT22;6920;50.080;8.226;2023-04-25T07:57:30;9.50;99.90
13697;DHT22;6920;50.080;8.226;2023-04-25T07:59:58;9.60;99.90
13697;DHT22;6920;50.080;8.226;2023-04-25T08:02:33;9.70;99.90
13697;DHT22;6920;50.080;8.226;2023-04-25T08:05:00;9.60;99.90
13697;DHT22;6920;50.080;8.226;2023-04-25T08:07:32;9.70;99.90
13697;DHT22;6920;50.080;8.226;2023-04-25T08:10:32;9.90;99.90
13697;DHT22;6920;50.080;8.226;2023-04-25T08:13:15;9.90;99.90
13697;DHT22;6920;50.080;8.226;2023-04-25T08:15:43;10.00;99.90
13697;DHT22;6920;50.080;8.226;2023-04-25T08:18:11;10.30;99.90
13697;DHT22;6920;50.080;8.226;2023-04-25T08:20:39;10.40;99.90
13697;DHT22;6920;50.080;8.226;2023-04-25T08:23:08;10.70;99.90
13697;DHT22;6920;50.080;8.226;2023-04-25T08:25:49;10.80;99.90
13697;DHT22;6920;50.080;8.226;2023-04-25T08:28:19;10.70;99.90
13697;DHT22;6920;50.080;8.226;2023-04-25T08:30:47;10.50;99.90
13697;DHT22;6920;50.080;8.226;2023-04-25T08:33:18;10.30;99.90
13697;DHT22;6920;50.080;8.226;2023-04-25T08:35:46;10.20;99.90
13697;DHT22;6920;50.080;8.226;2023-04-25T08:38:17;10.20;99.90
13697;DHT22;6920;50.080;8.226;2023-04-25T08:40:44;10.60;99.90
13697;DHT22;6920;50.080;8.226;2023-04-25T08:43:14;10.70;99.90
13697;DHT22;6920;50.080;8.226;2023-04-25T08:45:47;10.70;99.90
13697;DHT22;6920;50.080;8.226;2023-04-25T08:48:15;10.90;99.90
13697;DHT22;6920;50.080;8.226;2023-04-25T08:50:46;11.00;99.90
13697;DHT22;6920;50.080;8.226;2023-04-25T08:53:16;11.00;99.90
13697;DHT22;6920;50.080;8.226;2023-04-25T08:55:46;10.70;99.90
13697;DHT22;6920;50.080;8.226;2023-04-25T08:58:13;10.70;99.90
13697;DHT22;6920;50.080;8.226;2023-04-25T09:00:42;10.70;99.90
13697;DHT22;6920;50.080;8.226;2023-04-25T09:03:15;10.80;99.90
13697;DHT22;6920;50.080;8.226;2023-04-25T09:05:43;10.60;99.90
13697;DHT22;6920;50.080;8.226;2023-04-25T09:08:11;10.60;99.90
13697;DHT22;6920;50.080;8.226;2023-04-25T09:10:40;10.80;99.90
13697;DHT22;6920;50.080;8.226;2023-04-25T09:13:08;10.90;99.90
13697;DHT22;6920;50.080;8.226;2023-04-25T09:15:49;11.40;99.90
13697;DHT22;6920;50.080;8.226;2023-04-25T09:18:29;11.40;99.90
13697;DHT22;6920;50.080;8.226;2023-04-25T09:20:58;11.50;99.90
13697;DHT22;6920;50.080;8.226;2023-04-25T09:23:31;11.50;99.90
13697;DHT22;6920;50.080;8.226;2023-04-25T09:26:09;11.70;99.90
13697;DHT22;6920;50.080;8.226;2023-04-25T09:28:36;11.70;99.90
13697;DHT22;6920;50.080;8.226;2023-04-25T09:31:05;11.70;99.90
13697;DHT22;6920;50.080;8.226;2023-04-25T09:33:34;11.70;99.90
13697;DHT22;6920;50.080;8.226;2023-04-25T09:36:03;11.80;99.90
13697;DHT22;6920;50.080;8.226;2023-04-25T09:38:32;11.90;99.90
13697;DHT22;6920;50.080;8.226;2023-04-25T09:41:02;11.70;99.90
13697;DHT22;6920;50.080;8.226;2023-04-25T09:43:32;11.50;99.90
13697;DHT22;6920;50.080;8.226;2023-04-25T09:45:59;11.30;99.90
13697;DHT22;6920;50.080;8.226;2023-04-25T09:48:27;11.00;99.90
13697;DHT22;6920;50.080;8.226;2023-04-25T09:51:06;11.10;99.90
13697;DHT22;6920;50.080;8.226;2023-04-25T09:53:33;11.00;99.90
13697;DHT22;6920;50.080;8.226;2023-04-25T09:56:05;11.00;99.90
13697;DHT22;6920;50.080;8.226;2023-04-25T09:58:34;10.90;99.90
13697;DHT22;6920;50.080;8.226;2023-04-25T10:01:02;11.00;99.90
13697;DHT22;6920;50.080;8.226;2023-04-25T10:03:30;11.30;99.90
13697;DHT22;6920;50.080;8.226;2023-04-25T10:06:00;11.40;99.90
13697;DHT22;6920;50.080;8.226;2023-04-25T10:08:32;11.10;99.90
13697;DHT22;6920;50.080;8.226;2023-04-25T10:11:01;11.10;99.90
13697;DHT22;6920;50.080;8.226;2023-04-25T10:13:29;11.20;99.90
13697;DHT22;6920;50.080;8.226;2023-04-25T10:15:57;11.30;99.90
13697;DHT22;6920;50.080;8.226;2023-04-25T10:18:25;11.30;99.90
13697;DHT22;6920;50.080;8.226;2023-04-25T10:20:54;11.40;99.90
13697;DHT22;6920;50.080;8.226;2023-04-25T10:23:22;11.30;99.90
13697;DHT22;6920;50.080;8.226;2023-04-25T10:25:52;11.50;99.90
13697;DHT22;6920;50.080;8.226;2023-04-25T10:28:20;11.30;99.90
13697;DHT22;6920;50.080;8.226;2023-04-25T10:31:00;11.20;99.90
13697;DHT22;6920;50.080;8.226;2023-04-25T10:33:37;11.10;99.90
13697;DHT22;6920;50.080;8.226;2023-04-25T10:36:14;11.00;99.90
13697;DHT22;6920;50.080;8.226;2023-04-25T10:38:45;11.00;99.90
13697;DHT22;6920;50.080;8.226;2023-04-25T10:41:20;11.10;99.90
13697;DHT22;6920;50.080;8.226;2023-04-25T10:44:00;11.30;99.90
13697;DHT22;6920;50.080;8.226;2023-04-25T10:46:30;11.20;99.90
13697;DHT22;6920;50.080;8.226;2023-04-25T10:48:58;11.10;99.90
13697;DHT22;6920;50.080;8.226;2023-04-25T10:51:27;11.00;99.90
13697;DHT22;6920;50.080;8.226;2023-04-25T10:54:00;11.00;99.90
13697;DHT22;6920;50.080;8.226;2023-04-25T10:56:30;11.30;99.90
13697;DHT22;6920;50.080;8.226;2023-04-25T10:59:06;11.40;99.90
13697;DHT22;6920;50.080;8.226;2023-04-25T11:01:38;11.10;99.90
13697;DHT22;6920;50.080;8.226;2023-04-25T11:04:19;11.10;99.90
13697;DHT22;6920;50.080;8.226;2023-04-25T11:07:07;10.90;99.90
13697;DHT22;6920;50.080;8.226;2023-04-25T11:09:39;11.00;99.90
13697;DHT22;6920;50.080;8.226;2023-04-25T11:12:09;11.50;99.90
13697;DHT22;6920;50.080;8.226;2023-04-25T11:14:38;11.50;99.90
13697;DHT22;6920;50.080;8.226;2023-04-25T11:17:05;11.60;99.90
13697;DHT22;6920;50.080;8.226;2023-04-25T11:19:33;11.50;99.90
13697;DHT22;6920;50.080;8.226;2023-04-25T11:22:01;11.30;99.90
13697;DHT22;6920;50.080;8.226;2023-04-25T11:24:29;11.30;99.90
13697;DHT22;6920;50.080;8.226;2023-04-25T11:26:57;11.40;99.90
13697;DHT22;6920;50.080;8.226;2023-04-25T11:29:28;11.40;99.90
13697;DHT22;6920;50.080;8.226;2023-04-25T11:31:56;11.40;99.90
13697;DHT22;6920;50.080;8.226;2023-04-25T11:34:24;11.30;99.90
13697;DHT22;6920;50.080;8.226;2023-04-25T11:36:51;11.40;99.90
13697;DHT22;6920;50.080;8.226;2023-04-25T11:39:19;11.30;99.90
13697;DHT22;6920;50.080;8.226;2023-04-25T11:41:46;11.40;99.90
13697;DHT22;6920;50.080;8.226;2023-04-25T11:44:16;11.40;99.90
13697;DHT22;6920;50.080;8.226;2023-04-25T11:46:46;11.20;99.90
13697;DHT22;6920;50.080;8.226;2023-04-25T11:49:13;11.30;99.90
13697;DHT22;6920;50.080;8.226;2023-04-25T11:51:41;11.40;99.90
13697;DHT22;6920;50.080;8.226;2023-04-25T11:54:09;11.60;99.90
13697;DHT22;6920;50.080;8.226;2023-04-25T11:56:36;11.70;99.90
13697;DHT22;6920;50.080;8.226;2023-04-25T11:59:05;11.60;99.90
13697;DHT22;6920;50.080;8.226;2023-04-25T12:01:33;11.80;99.90
13697;DHT22;6920;50.080;8.226;2023-04-25T12:04:12;12.00;99.90
13697;DHT22;6920;50.080;8.226;2023-04-25T12:06:40;12.10;99.90
13697;DHT22;6920;50.080;8.226;2023-04-25T12:09:09;12.40;99.90
13697;DHT22;6920;50.080;8.226;2023-04-25T12:11:43;12.70;99.90
13697;DHT22;6920;50.080;8.226;2023-04-25T12:14:11;13.00;99.90
13697;DHT22;6920;50.080;8.226;2023-04-25T12:16:42;13.20;99.90
13697;DHT22;6920;50.080;8.226;2023-04-25T12:19:13;13.20;99.90
13697;DHT22;6920;50.080;8.226;2023-04-25T12:21:41;13.40;99.90
13697;DHT22;6920;50.080;8.226;2023-04-25T12:24:10;12.80;99.90
13697;DHT22;6920;50.080;8.226;2023-04-25T12:26:51;12.60;99.90
13697;DHT22;6920;50.080;8.226;2023-04-25T12:29:20;12.50;99.90
13697;DHT22;6920;50.080;8.226;2023-04-25T12:34:16;12.30;99.90
13697;DHT22;6920;50.080;8.226;2023-04-25T12:36:44;12.00;99.90
13697;DHT22;6920;50.080;8.226;2023-04-25T12:39:20;11.70;99.90
13697;DHT22;6920;50.080;8.226;2023-04-25T12:41:50;11.80;99.90
13697;DHT22;6920;50.080;8.226;2023-04-25T12:44:17;11.80;99.90
13697;DHT22;6920;50.080;8.226;2023-04-25T12:46:45;11.70;99.90
13697;DHT22;6920;50.080;8.226;2023-04-25T12:51:41;11.30;99.90
13697;DHT22;6920;50.080;8.226;2023-04-25T12:54:08;11.40;99.90
13697;DHT22;6920;50.080;8.226;2023-04-25T12:56:36;11.70;99.90
13697;DHT22;6920;50.080;8.226;2023-04-25T12:59:03;11.90;99.90
13697;DHT22;6920;50.080;8.226;2023-04-25T13:01:31;12.20;99.90
13697;DHT22;6920;50.080;8.226;2023-04-25T13:04:00;12.40;99.90
13697;DHT22;6920;50.080;8.226;2023-04-25T13:06:29;12.70;99.90
13697;DHT22;6920;50.080;8.226;2023-04-25T13:08:58;12.80;99.90
13697;DHT22;6920;50.080;8.226;2023-04-25T13:13:53;12.70;99.90
13697;DHT22;6920;50.080;8.226;2023-04-25T13:16:20;12.30;99.90
13697;DHT22;6920;50.080;8.226;2023-04-25T13:18:48;12.20;99.90
13697;DHT22;6920;50.080;8.226;2023-04-25T13:21:15;12.20;99.90
13697;DHT22;6920;50.080;8.226;2023-04-25T13:23:42;12.20;99.90
13697;DHT22;6920;50.080;8.226;2023-04-25T13:26:13;12.40;99.90
13697;DHT22;6920;50.080;8.226;2023-04-25T13:28:40;12.70;99.90
13697;DHT22;6920;50.080;8.226;2023-04-25T13:31:07;12.30;99.90
13697;DHT22;6920;50.080;8.226;2023-04-25T13:33:35;12.20;99.90
13697;DHT22;6920;50.080;8.226;2023-04-25T13:36:02;12.20;99.90
13697;DHT22;6920;50.080;8.226;2023-04-25T13:40:57;12.40;99.90
13697;DHT22;6920;50.080;8.226;2023-04-25T13:43:25;12.50;99.90
13697;DHT22;6920;50.080;8.226;2023-04-25T13:45:52;12.30;99.90
13697;DHT22;6920;50.080;8.226;2023-04-25T13:48:20;12.00;99.90
13697;DHT22;6920;50.080;8.226;2023-04-25T13:50:48;12.00;99.90
13697;DHT22;6920;50.080;8.226;2023-04-25T13:53:16;12.10;99.90
13697;DHT22;6920;50.080;8.226;2023-04-25T13:55:43;12.00;99.90
13697;DHT22;6920;50.080;8.226;2023-04-25T13:58:10;11.70;99.90
13697;DHT22;6920;50.080;8.226;2023-04-25T14:00:39;11.60;99.90
13697;DHT22;6920;50.080;8.226;2023-04-25T14:03:09;11.60;99.90
13697;DHT22;6920;50.080;8.226;2023-04-25T14:05:36;11.70;99.90
13697;DHT22;6920;50.080;8.226;2023-04-25T14:08:05;11.80;99.90
13697;DHT22;6920;50.080;8.226;2023-04-25T14:10:34;11.90;99.90
13697;DHT22;6920;50.080;8.226;2023-04-25T14:13:01;12.10;99.90
13697;DHT22;6920;50.080;8.226;2023-04-25T14:15:29;12.50;99.90
13697;DHT22;6920;50.080;8.226;2023-04-25T14:17:59;13.10;99.90
13697;DHT22;6920;50.080;8.226;2023-04-25T14:22:55;12.90;99.90
13697;DHT22;6920;50.080;8.226;2023-04-25T14:25:24;12.50;99.90
13697;DHT22;6920;50.080;8.226;2023-04-25T14:27:51;12.20;99.90
13697;DHT22;6920;50.080;8.226;2023-04-25T14:30:20;12.10;99.90
13697;DHT22;6920;50.080;8.226;2023-04-25T14:32:49;12.20;99.90
13697;DHT22;6920;50.080;8.226;2023-04-25T14:35:20;12.00;99.90
13697;DHT22;6920;50.080;8.226;2023-04-25T14:37:48;12.00;99.90
13697;DHT22;6920;50.080;8.226;2023-04-25T14:40:19;11.80;99.90
13697;DHT22;6920;50.080;8.226;2023-04-25T14:42:49;11.90;99.90
13697;DHT22;6920;50.080;8.226;2023-04-25T14:45:19;11.90;99.90
13697;DHT22;6920;50.080;8.226;2023-04-25T14:47:46;12.00;99.90
13697;DHT22;6920;50.080;8.226;2023-04-25T14:50:13;12.20;99.90
13697;DHT22;6920;50.080;8.226;2023-04-25T14:52:45;12.10;99.90
13697;DHT22;6920;50.080;8.226;2023-04-25T14:55:13;12.10;99.90
13697;DHT22;6920;50.080;8.226;2023-04-25T14:57:42;12.10;99.90
13697;DHT22;6920;50.080;8.226;2023-04-25T15:00:12;12.30;99.90
13697;DHT22;6920;50.080;8.226;2023-04-25T15:02:41;12.00;99.90
13697;DHT22;6920;50.080;8.226;2023-04-25T15:05:10;12.10;99.90
13697;DHT22;6920;50.080;8.226;2023-04-25T15:10:08;11.90;99.90
13697;DHT22;6920;50.080;8.226;2023-04-25T15:12:42;11.90;99.90
13697;DHT22;6920;50.080;8.226;2023-04-25T15:15:10;11.80;99.90
13697;DHT22;6920;50.080;8.226;2023-04-25T15:17:38;12.10;99.90
13697;DHT22;6920;50.080;8.226;2023-04-25T15:20:11;12.20;99.90
13697;DHT22;6920;50.080;8.226;2023-04-25T15:22:41;12.30;99.90
13697;DHT22;6920;50.080;8.226;2023-04-25T15:25:10;12.20;99.90
13697;DHT22;6920;50.080;8.226;2023-04-25T15:27:38;12.10;99.90
13697;DHT22;6920;50.080;8.226;2023-04-25T15:30:09;12.10;99.90
13697;DHT22;6920;50.080;8.226;2023-04-25T15:32:39;12.30;99.90
13697;DHT22;6920;50.080;8.226;2023-04-25T15:35:08;12.10;99.90
13697;DHT22;6920;50.080;8.226;2023-04-25T15:37:36;12.00;99.90
13697;DHT22;6920;50.080;8.226;2023-04-25T15:40:05;12.20;99.90
13697;DHT22;6920;50.080;8.226;2023-04-25T15:42:36;12.20;99.90
13697;DHT22;6920;50.080;8.226;2023-04-25T15:45:05;12.20;99.90
13697;DHT22;6920;50.080;8.226;2023-04-25T15:47:48;12.40;99.90
13697;DHT22;6920;50.080;8.226;2023-04-25T15:50:42;12.30;99.50
13697;DHT22;6920;50.080;8.226;2023-04-25T15:53:10;12.30;99.80
13697;DHT22;6920;50.080;8.226;2023-04-25T15:55:38;12.40;99.60
13697;DHT22;6920;50.080;8.226;2023-04-25T15:58:07;12.40;99.60
13697;DHT22;6920;50.080;8.226;2023-04-25T16:00:34;12.40;99.40
13697;DHT22;6920;50.080;8.226;2023-04-25T16:03:02;12.40;99.30
13697;DHT22;6920;50.080;8.226;2023-04-25T16:05:30;12.30;99.30
13697;DHT22;6920;50.080;8.226;2023-04-25T16:07:57;12.40;99.30
13697;DHT22;6920;50.080;8.226;2023-04-25T16:10:25;12.70;99.50
13697;DHT22;6920;50.080;8.226;2023-04-25T16:12:53;12.10;98.80
13697;DHT22;6920;50.080;8.226;2023-04-25T16:15:21;12.10;99.20
13697;DHT22;6920;50.080;8.226;2023-04-25T16:17:49;12.20;99.90
13697;DHT22;6920;50.080;8.226;2023-04-25T16:20:16;12.00;99.80
13697;DHT22;6920;50.080;8.226;2023-04-25T16:22:43;12.00;99.60
13697;DHT22;6920;50.080;8.226;2023-04-25T16:25:12;12.10;99.90
13697;DHT22;6920;50.080;8.226;2023-04-25T16:30:09;12.10;99.80
13697;DHT22;6920;50.080;8.226;2023-04-25T16:32:38;12.10;99.90
13697;DHT22;6920;50.080;8.226;2023-04-25T16:35:06;12.00;99.90
13697;DHT22;6920;50.080;8.226;2023-04-25T16:37:34;11.90;99.90
13697;DHT22;6920;50.080;8.226;2023-04-25T16:40:06;12.00;99.90
13697;DHT22;6920;50.080;8.226;2023-04-25T16:42:34;11.70;99.90
13697;DHT22;6920;50.080;8.226;2023-04-25T16:45:02;11.60;99.90
13697;DHT22;6920;50.080;8.226;2023-04-25T16:47:30;11.50;99.90